Terminal Aerodrome Forecast
Issued by NWS Cleveland, OH

Home | Current Version | Previous Version | Text Only | Print | Product List | Glossary On
Versions: 1 2 3 4 5 6 7 8 9 10 11 12 13 14 15 16 17 18 19 20 21
000
FTUS41 KCLE 282300
TAFTOL
TAF
KTOL 282339Z 2900/2924 10003KT P6SM BKN200
     FM290700 00000KT 4SM BR SCT250
      TEMPO 2909/2913 1SM BR
     FM291400 32004KT P6SM FEW040=

USA.gov is the U.S. government's official web portal to all federal, state and local government web resources and services.